sensor_id;sensor_type;location;lat;lon;timestamp;P1;durP1;ratioP1;P2;durP2;ratioP2
44438;SDS011;30145;48.874;10.186;2022-08-19T00:00:38;18.20;;;15.53;;
44438;SDS011;30145;48.874;10.186;2022-08-19T00:03:05;16.40;;;14.53;;
44438;SDS011;30145;48.874;10.186;2022-08-19T00:05:33;16.87;;;15.17;;
44438;SDS011;30145;48.874;10.186;2022-08-19T00:08:00;16.77;;;14.90;;
44438;SDS011;30145;48.874;10.186;2022-08-19T00:10:27;18.10;;;14.70;;
44438;SDS011;30145;48.874;10.186;2022-08-19T00:12:55;18.03;;;14.50;;
44438;SDS011;30145;48.874;10.186;2022-08-19T00:15:23;16.30;;;14.60;;
44438;SDS011;30145;48.874;10.186;2022-08-19T00:17:50;16.97;;;15.27;;
44438;SDS011;30145;48.874;10.186;2022-08-19T00:20:18;16.33;;;14.63;;
44438;SDS011;30145;48.874;10.186;2022-08-19T00:22:47;18.03;;;16.13;;
44438;SDS011;30145;48.874;10.186;2022-08-19T00:25:15;18.03;;;16.10;;
44438;SDS011;30145;48.874;10.186;2022-08-19T00:27:42;17.37;;;15.47;;
44438;SDS011;30145;48.874;10.186;2022-08-19T00:30:09;19.53;;;16.63;;
44438;SDS011;30145;48.874;10.186;2022-08-19T00:32:37;20.37;;;16.20;;
44438;SDS011;30145;48.874;10.186;2022-08-19T00:35:05;23.30;;;18.23;;
44438;SDS011;30145;48.874;10.186;2022-08-19T00:37:32;18.90;;;16.87;;
44438;SDS011;30145;48.874;10.186;2022-08-19T00:40:02;18.27;;;15.70;;
44438;SDS011;30145;48.874;10.186;2022-08-19T00:42:31;18.60;;;15.13;;
44438;SDS011;30145;48.874;10.186;2022-08-19T00:44:58;17.40;;;15.40;;
44438;SDS011;30145;48.874;10.186;2022-08-19T00:47:25;18.33;;;16.37;;
44438;SDS011;30145;48.874;10.186;2022-08-19T00:49:53;20.23;;;17.37;;
44438;SDS011;30145;48.874;10.186;2022-08-19T00:52:23;19.60;;;16.83;;
44438;SDS011;30145;48.874;10.186;2022-08-19T00:54:55;19.10;;;16.97;;
44438;SDS011;30145;48.874;10.186;2022-08-19T00:57:29;17.97;;;16.07;;
44438;SDS011;30145;48.874;10.186;2022-08-19T00:59:58;18.87;;;16.10;;
44438;SDS011;30145;48.874;10.186;2022-08-19T01:02:29;21.20;;;18.13;;
44438;SDS011;30145;48.874;10.186;2022-08-19T01:04:57;22.73;;;18.63;;
44438;SDS011;30145;48.874;10.186;2022-08-19T01:07:25;20.97;;;17.77;;
44438;SDS011;30145;48.874;10.186;2022-08-19T01:09:52;20.17;;;17.43;;
44438;SDS011;30145;48.874;10.186;2022-08-19T01:12:20;20.47;;;18.17;;
44438;SDS011;30145;48.874;10.186;2022-08-19T01:14:48;21.40;;;18.23;;
44438;SDS011;30145;48.874;10.186;2022-08-19T01:17:16;19.93;;;17.83;;
44438;SDS011;30145;48.874;10.186;2022-08-19T01:19:43;21.80;;;17.83;;
44438;SDS011;30145;48.874;10.186;2022-08-19T01:22:19;23.07;;;18.53;;
44438;SDS011;30145;48.874;10.186;2022-08-19T01:24:57;22.23;;;19.77;;
44438;SDS011;30145;48.874;10.186;2022-08-19T01:27:24;21.80;;;19.47;;
44438;SDS011;30145;48.874;10.186;2022-08-19T01:29:51;22.23;;;19.73;;
44438;SDS011;30145;48.874;10.186;2022-08-19T01:32:18;22.00;;;18.97;;
44438;SDS011;30145;48.874;10.186;2022-08-19T01:34:46;23.03;;;20.10;;
44438;SDS011;30145;48.874;10.186;2022-08-19T01:37:13;22.27;;;19.13;;
44438;SDS011;30145;48.874;10.186;2022-08-19T01:39:41;24.67;;;20.10;;
44438;SDS011;30145;48.874;10.186;2022-08-19T01:42:08;22.23;;;19.23;;
44438;SDS011;30145;48.874;10.186;2022-08-19T01:44:38;23.47;;;19.67;;
44438;SDS011;30145;48.874;10.186;2022-08-19T01:47:07;22.37;;;18.67;;
44438;SDS011;30145;48.874;10.186;2022-08-19T01:49:36;23.77;;;20.03;;
44438;SDS011;30145;48.874;10.186;2022-08-19T01:52:03;23.23;;;20.30;;
44438;SDS011;30145;48.874;10.186;2022-08-19T01:54:31;25.83;;;21.03;;
44438;SDS011;30145;48.874;10.186;2022-08-19T01:57:01;24.67;;;20.43;;
44438;SDS011;30145;48.874;10.186;2022-08-19T01:59:32;26.85;;;20.30;;
44438;SDS011;30145;48.874;10.186;2022-08-19T02:01:59;24.37;;;20.47;;
44438;SDS011;30145;48.874;10.186;2022-08-19T02:04:26;23.57;;;19.50;;
44438;SDS011;30145;48.874;10.186;2022-08-19T02:06:53;24.37;;;20.40;;
44438;SDS011;30145;48.874;10.186;2022-08-19T02:09:20;23.57;;;20.67;;
44438;SDS011;30145;48.874;10.186;2022-08-19T02:11:48;25.25;;;21.05;;
44438;SDS011;30145;48.874;10.186;2022-08-19T02:14:15;23.97;;;20.73;;
44438;SDS011;30145;48.874;10.186;2022-08-19T02:16:42;26.87;;;21.37;;
44438;SDS011;30145;48.874;10.186;2022-08-19T02:19:09;24.93;;;20.90;;
44438;SDS011;30145;48.874;10.186;2022-08-19T02:21:36;25.80;;;21.73;;
44438;SDS011;30145;48.874;10.186;2022-08-19T02:24:04;25.93;;;20.93;;
44438;SDS011;30145;48.874;10.186;2022-08-19T02:26:31;26.43;;;20.70;;
44438;SDS011;30145;48.874;10.186;2022-08-19T02:28:59;26.37;;;22.10;;
44438;SDS011;30145;48.874;10.186;2022-08-19T02:31:27;25.77;;;21.33;;
44438;SDS011;30145;48.874;10.186;2022-08-19T02:33:54;25.40;;;20.70;;
44438;SDS011;30145;48.874;10.186;2022-08-19T02:36:23;28.93;;;21.63;;
44438;SDS011;30145;48.874;10.186;2022-08-19T02:38:50;25.47;;;21.93;;
44438;SDS011;30145;48.874;10.186;2022-08-19T02:41:19;29.63;;;23.10;;
44438;SDS011;30145;48.874;10.186;2022-08-19T02:43:48;27.00;;;22.47;;
44438;SDS011;30145;48.874;10.186;2022-08-19T02:46:17;26.30;;;22.43;;
44438;SDS011;30145;48.874;10.186;2022-08-19T02:48:48;29.27;;;22.17;;
44438;SDS011;30145;48.874;10.186;2022-08-19T02:51:20;27.90;;;21.20;;
44438;SDS011;30145;48.874;10.186;2022-08-19T02:53:51;26.87;;;21.50;;
44438;SDS011;30145;48.874;10.186;2022-08-19T02:56:19;26.70;;;21.83;;
44438;SDS011;30145;48.874;10.186;2022-08-19T02:58:46;28.57;;;20.57;;
44438;SDS011;30145;48.874;10.186;2022-08-19T03:01:22;26.17;;;20.50;;
44438;SDS011;30145;48.874;10.186;2022-08-19T03:03:54;23.50;;;19.63;;
44438;SDS011;30145;48.874;10.186;2022-08-19T03:06:22;24.13;;;20.77;;
44438;SDS011;30145;48.874;10.186;2022-08-19T03:08:49;25.43;;;20.87;;
44438;SDS011;30145;48.874;10.186;2022-08-19T03:11:21;23.17;;;20.03;;
44438;SDS011;30145;48.874;10.186;2022-08-19T03:13:52;25.43;;;20.73;;
44438;SDS011;30145;48.874;10.186;2022-08-19T03:16:22;24.63;;;21.10;;
44438;SDS011;30145;48.874;10.186;2022-08-19T03:18:50;25.93;;;21.30;;
44438;SDS011;30145;48.874;10.186;2022-08-19T03:21:20;25.87;;;21.03;;
44438;SDS011;30145;48.874;10.186;2022-08-19T03:23:55;27.87;;;20.97;;
44438;SDS011;30145;48.874;10.186;2022-08-19T03:26:22;24.13;;;20.37;;
44438;SDS011;30145;48.874;10.186;2022-08-19T03:28:50;22.53;;;19.97;;
44438;SDS011;30145;48.874;10.186;2022-08-19T03:31:18;28.33;;;20.80;;
44438;SDS011;30145;48.874;10.186;2022-08-19T03:33:49;22.57;;;19.60;;
44438;SDS011;30145;48.874;10.186;2022-08-19T03:36:18;24.27;;;20.13;;
44438;SDS011;30145;48.874;10.186;2022-08-19T03:38:51;26.57;;;22.00;;
44438;SDS011;30145;48.874;10.186;2022-08-19T03:41:22;25.07;;;20.07;;
44438;SDS011;30145;48.874;10.186;2022-08-19T03:43:52;23.40;;;19.87;;
44438;SDS011;30145;48.874;10.186;2022-08-19T03:46:27;24.60;;;20.13;;
44438;SDS011;30145;48.874;10.186;2022-08-19T03:48:56;24.37;;;20.67;;
44438;SDS011;30145;48.874;10.186;2022-08-19T03:51:26;24.47;;;20.33;;
44438;SDS011;30145;48.874;10.186;2022-08-19T03:53:58;25.40;;;19.73;;
44438;SDS011;30145;48.874;10.186;2022-08-19T03:56:26;26.03;;;20.77;;
44438;SDS011;30145;48.874;10.186;2022-08-19T03:58:55;25.53;;;20.20;;
44438;SDS011;30145;48.874;10.186;2022-08-19T04:01:23;27.90;;;20.50;;
44438;SDS011;30145;48.874;10.186;2022-08-19T04:03:53;24.97;;;19.80;;
44438;SDS011;30145;48.874;10.186;2022-08-19T04:06:23;24.47;;;21.90;;
44438;SDS011;30145;48.874;10.186;2022-08-19T04:08:54;24.67;;;20.87;;
44438;SDS011;30145;48.874;10.186;2022-08-19T04:11:22;25.00;;;20.15;;
44438;SDS011;30145;48.874;10.186;2022-08-19T04:16:19;25.27;;;19.90;;
44438;SDS011;30145;48.874;10.186;2022-08-19T04:18:47;26.03;;;22.23;;
44438;SDS011;30145;48.874;10.186;2022-08-19T04:21:16;26.47;;;20.63;;
44438;SDS011;30145;48.874;10.186;2022-08-19T04:23:45;27.57;;;21.60;;
44438;SDS011;30145;48.874;10.186;2022-08-19T04:26:13;25.23;;;20.87;;
44438;SDS011;30145;48.874;10.186;2022-08-19T04:28:42;27.17;;;21.50;;
44438;SDS011;30145;48.874;10.186;2022-08-19T04:31:13;31.23;;;21.57;;
44438;SDS011;30145;48.874;10.186;2022-08-19T04:33:42;28.33;;;22.13;;
44438;SDS011;30145;48.874;10.186;2022-08-19T04:36:18;25.93;;;20.70;;
44438;SDS011;30145;48.874;10.186;2022-08-19T04:38:48;25.63;;;20.87;;
44438;SDS011;30145;48.874;10.186;2022-08-19T04:41:16;26.00;;;20.73;;
44438;SDS011;30145;48.874;10.186;2022-08-19T04:44:01;27.27;;;21.00;;
44438;SDS011;30145;48.874;10.186;2022-08-19T04:46:29;23.90;;;20.33;;
44438;SDS011;30145;48.874;10.186;2022-08-19T04:48:59;27.03;;;21.60;;
44438;SDS011;30145;48.874;10.186;2022-08-19T04:51:27;26.17;;;21.37;;
44438;SDS011;30145;48.874;10.186;2022-08-19T04:53:54;27.87;;;22.33;;
44438;SDS011;30145;48.874;10.186;2022-08-19T04:56:21;27.17;;;22.17;;
44438;SDS011;30145;48.874;10.186;2022-08-19T04:58:49;26.10;;;21.33;;
44438;SDS011;30145;48.874;10.186;2022-08-19T05:01:18;28.27;;;21.50;;
44438;SDS011;30145;48.874;10.186;2022-08-19T05:03:47;25.67;;;21.43;;
44438;SDS011;30145;48.874;10.186;2022-08-19T05:06:16;29.77;;;21.73;;
44438;SDS011;30145;48.874;10.186;2022-08-19T05:08:44;30.13;;;21.43;;
44438;SDS011;30145;48.874;10.186;2022-08-19T05:11:13;27.57;;;22.50;;
44438;SDS011;30145;48.874;10.186;2022-08-19T05:13:48;26.50;;;22.47;;
44438;SDS011;30145;48.874;10.186;2022-08-19T05:16:17;30.67;;;22.53;;
44438;SDS011;30145;48.874;10.186;2022-08-19T05:18:45;29.00;;;23.37;;
44438;SDS011;30145;48.874;10.186;2022-08-19T05:21:31;28.50;;;21.87;;
44438;SDS011;30145;48.874;10.186;2022-08-19T05:24:17;27.03;;;21.90;;
44438;SDS011;30145;48.874;10.186;2022-08-19T05:26:46;28.60;;;22.93;;
44438;SDS011;30145;48.874;10.186;2022-08-19T05:29:15;29.27;;;22.23;;
44438;SDS011;30145;48.874;10.186;2022-08-19T05:31:43;25.03;;;20.43;;
44438;SDS011;30145;48.874;10.186;2022-08-19T05:34:10;29.77;;;22.57;;
44438;SDS011;30145;48.874;10.186;2022-08-19T05:36:40;25.73;;;21.40;;
44438;SDS011;30145;48.874;10.186;2022-08-19T05:39:10;29.17;;;21.87;;
44438;SDS011;30145;48.874;10.186;2022-08-19T05:41:43;28.07;;;21.60;;
44438;SDS011;30145;48.874;10.186;2022-08-19T05:44:11;29.57;;;21.37;;
44438;SDS011;30145;48.874;10.186;2022-08-19T05:46:39;26.60;;;21.23;;
44438;SDS011;30145;48.874;10.186;2022-08-19T05:49:06;25.00;;;20.70;;
44438;SDS011;30145;48.874;10.186;2022-08-19T05:51:34;25.83;;;20.43;;
44438;SDS011;30145;48.874;10.186;2022-08-19T05:54:04;27.00;;;21.50;;
44438;SDS011;30145;48.874;10.186;2022-08-19T05:56:32;26.53;;;20.93;;
44438;SDS011;30145;48.874;10.186;2022-08-19T05:59:04;27.77;;;21.37;;
44438;SDS011;30145;48.874;10.186;2022-08-19T06:01:35;29.30;;;21.40;;
44438;SDS011;30145;48.874;10.186;2022-08-19T06:04:06;28.07;;;21.83;;
44438;SDS011;30145;48.874;10.186;2022-08-19T06:06:33;28.57;;;22.13;;
44438;SDS011;30145;48.874;10.186;2022-08-19T06:09:02;26.23;;;20.00;;
44438;SDS011;30145;48.874;10.186;2022-08-19T06:11:32;26.40;;;21.57;;
44438;SDS011;30145;48.874;10.186;2022-08-19T06:14:13;25.60;;;20.90;;
44438;SDS011;30145;48.874;10.186;2022-08-19T06:16:46;26.63;;;20.73;;
44438;SDS011;30145;48.874;10.186;2022-08-19T06:19:15;25.97;;;20.80;;
44438;SDS011;30145;48.874;10.186;2022-08-19T06:21:44;27.10;;;21.50;;
44438;SDS011;30145;48.874;10.186;2022-08-19T06:24:14;25.97;;;20.63;;
44438;SDS011;30145;48.874;10.186;2022-08-19T06:26:45;28.20;;;21.57;;
44438;SDS011;30145;48.874;10.186;2022-08-19T06:29:15;26.23;;;21.00;;
44438;SDS011;30145;48.874;10.186;2022-08-19T06:31:43;26.87;;;21.77;;
44438;SDS011;30145;48.874;10.186;2022-08-19T06:34:12;25.93;;;21.03;;
44438;SDS011;30145;48.874;10.186;2022-08-19T06:36:40;24.13;;;19.60;;
44438;SDS011;30145;48.874;10.186;2022-08-19T06:39:11;24.13;;;19.30;;
44438;SDS011;30145;48.874;10.186;2022-08-19T06:41:42;24.27;;;20.13;;
44438;SDS011;30145;48.874;10.186;2022-08-19T06:44:13;26.63;;;20.57;;
44438;SDS011;30145;48.874;10.186;2022-08-19T06:46:41;30.40;;;22.00;;
44438;SDS011;30145;48.874;10.186;2022-08-19T06:49:08;26.17;;;20.67;;
44438;SDS011;30145;48.874;10.186;2022-08-19T06:51:40;26.17;;;20.70;;
44438;SDS011;30145;48.874;10.186;2022-08-19T06:54:10;29.30;;;22.13;;
44438;SDS011;30145;48.874;10.186;2022-08-19T06:56:37;27.27;;;20.97;;
44438;SDS011;30145;48.874;10.186;2022-08-19T06:59:09;25.20;;;20.63;;
44438;SDS011;30145;48.874;10.186;2022-08-19T07:01:41;26.33;;;21.13;;
44438;SDS011;30145;48.874;10.186;2022-08-19T07:04:15;28.40;;;21.13;;
44438;SDS011;30145;48.874;10.186;2022-08-19T07:06:44;26.63;;;20.87;;
44438;SDS011;30145;48.874;10.186;2022-08-19T07:09:12;27.83;;;20.03;;
44438;SDS011;30145;48.874;10.186;2022-08-19T07:11:47;25.27;;;20.50;;
44438;SDS011;30145;48.874;10.186;2022-08-19T07:14:16;25.80;;;20.33;;
44438;SDS011;30145;48.874;10.186;2022-08-19T07:16:46;27.27;;;21.33;;
44438;SDS011;30145;48.874;10.186;2022-08-19T07:19:15;27.83;;;21.27;;
44438;SDS011;30145;48.874;10.186;2022-08-19T07:21:43;27.07;;;21.33;;
44438;SDS011;30145;48.874;10.186;2022-08-19T07:24:10;23.67;;;20.93;;
44438;SDS011;30145;48.874;10.186;2022-08-19T07:26:39;22.73;;;18.67;;
44438;SDS011;30145;48.874;10.186;2022-08-19T07:29:09;25.10;;;20.33;;
44438;SDS011;30145;48.874;10.186;2022-08-19T07:31:37;24.97;;;20.27;;
44438;SDS011;30145;48.874;10.186;2022-08-19T07:34:05;26.20;;;21.57;;
44438;SDS011;30145;48.874;10.186;2022-08-19T07:36:37;26.70;;;21.47;;
44438;SDS011;30145;48.874;10.186;2022-08-19T07:39:06;24.03;;;19.63;;
44438;SDS011;30145;48.874;10.186;2022-08-19T07:41:36;25.13;;;21.13;;
44438;SDS011;30145;48.874;10.186;2022-08-19T07:44:04;26.97;;;21.13;;
44438;SDS011;30145;48.874;10.186;2022-08-19T07:46:32;27.93;;;21.63;;
44438;SDS011;30145;48.874;10.186;2022-08-19T07:49:04;25.77;;;20.73;;
44438;SDS011;30145;48.874;10.186;2022-08-19T07:51:32;24.17;;;20.27;;
44438;SDS011;30145;48.874;10.186;2022-08-19T07:54:00;26.67;;;20.93;;
44438;SDS011;30145;48.874;10.186;2022-08-19T07:56:27;25.97;;;21.30;;
44438;SDS011;30145;48.874;10.186;2022-08-19T07:58:54;23.57;;;20.10;;
44438;SDS011;30145;48.874;10.186;2022-08-19T08:01:23;25.87;;;20.73;;
44438;SDS011;30145;48.874;10.186;2022-08-19T08:03:52;26.37;;;21.60;;
44438;SDS011;30145;48.874;10.186;2022-08-19T08:06:39;27.07;;;21.03;;
44438;SDS011;30145;48.874;10.186;2022-08-19T08:09:28;26.37;;;21.30;;
44438;SDS011;30145;48.874;10.186;2022-08-19T08:11:59;27.60;;;21.97;;
44438;SDS011;30145;48.874;10.186;2022-08-19T08:14:38;25.37;;;20.83;;
44438;SDS011;30145;48.874;10.186;2022-08-19T08:17:10;25.40;;;19.87;;
44438;SDS011;30145;48.874;10.186;2022-08-19T08:19:37;30.47;;;21.73;;
44438;SDS011;30145;48.874;10.186;2022-08-19T08:22:08;28.20;;;21.13;;
44438;SDS011;30145;48.874;10.186;2022-08-19T08:24:56;26.90;;;20.80;;
44438;SDS011;30145;48.874;10.186;2022-08-19T08:27:25;26.67;;;21.90;;
44438;SDS011;30145;48.874;10.186;2022-08-19T08:29:57;25.77;;;21.17;;
44438;SDS011;30145;48.874;10.186;2022-08-19T08:32:24;27.50;;;21.57;;
44438;SDS011;30145;48.874;10.186;2022-08-19T08:34:51;26.87;;;21.07;;
44438;SDS011;30145;48.874;10.186;2022-08-19T08:37:18;26.33;;;21.93;;
44438;SDS011;30145;48.874;10.186;2022-08-19T08:39:45;25.90;;;21.70;;
44438;SDS011;30145;48.874;10.186;2022-08-19T08:42:16;29.47;;;22.00;;
44438;SDS011;30145;48.874;10.186;2022-08-19T08:45:09;26.77;;;20.93;;
44438;SDS011;30145;48.874;10.186;2022-08-19T08:47:41;29.17;;;21.53;;
44438;SDS011;30145;48.874;10.186;2022-08-19T08:50:15;27.03;;;21.87;;
44438;SDS011;30145;48.874;10.186;2022-08-19T08:53:04;27.17;;;21.27;;
44438;SDS011;30145;48.874;10.186;2022-08-19T08:55:32;26.83;;;21.60;;
44438;SDS011;30145;48.874;10.186;2022-08-19T08:58:01;29.33;;;21.90;;
44438;SDS011;30145;48.874;10.186;2022-08-19T09:00:34;26.90;;;21.70;;
44438;SDS011;30145;48.874;10.186;2022-08-19T09:03:10;27.77;;;21.53;;
44438;SDS011;30145;48.874;10.186;2022-08-19T09:08:28;26.30;;;21.13;;
44438;SDS011;30145;48.874;10.186;2022-08-19T09:10:59;25.77;;;20.87;;
44438;SDS011;30145;48.874;10.186;2022-08-19T09:16:22;25.30;;;21.50;;
44438;SDS011;30145;48.874;10.186;2022-08-19T09:18:51;26.37;;;21.40;;
44438;SDS011;30145;48.874;10.186;2022-08-19T09:21:20;25.53;;;21.17;;
44438;SDS011;30145;48.874;10.186;2022-08-19T09:23:51;26.07;;;21.03;;
44438;SDS011;30145;48.874;10.186;2022-08-19T09:26:20;24.27;;;20.00;;
44438;SDS011;30145;48.874;10.186;2022-08-19T09:28:49;22.67;;;20.20;;
44438;SDS011;30145;48.874;10.186;2022-08-19T09:31:20;24.60;;;20.73;;
44438;SDS011;30145;48.874;10.186;2022-08-19T09:33:50;26.90;;;21.33;;
44438;SDS011;30145;48.874;10.186;2022-08-19T09:36:20;26.47;;;19.87;;
44438;SDS011;30145;48.874;10.186;2022-08-19T09:38:49;23.73;;;19.83;;
44438;SDS011;30145;48.874;10.186;2022-08-19T09:41:17;23.63;;;20.60;;
44438;SDS011;30145;48.874;10.186;2022-08-19T09:43:46;25.90;;;21.03;;
44438;SDS011;30145;48.874;10.186;2022-08-19T09:46:19;23.63;;;19.37;;
44438;SDS011;30145;48.874;10.186;2022-08-19T09:48:47;21.53;;;18.93;;
44438;SDS011;30145;48.874;10.186;2022-08-19T09:51:19;24.97;;;20.70;;
44438;SDS011;30145;48.874;10.186;2022-08-19T09:53:48;24.07;;;19.60;;
44438;SDS011;30145;48.874;10.186;2022-08-19T09:56:23;23.67;;;19.57;;
44438;SDS011;30145;48.874;10.186;2022-08-19T09:58:50;23.57;;;20.40;;
44438;SDS011;30145;48.874;10.186;2022-08-19T10:01:22;25.47;;;20.23;;
44438;SDS011;30145;48.874;10.186;2022-08-19T10:03:53;28.43;;;20.53;;
44438;SDS011;30145;48.874;10.186;2022-08-19T10:06:22;26.00;;;19.93;;
44438;SDS011;30145;48.874;10.186;2022-08-19T10:08:51;25.83;;;20.13;;
44438;SDS011;30145;48.874;10.186;2022-08-19T10:11:19;25.27;;;21.30;;
44438;SDS011;30145;48.874;10.186;2022-08-19T10:13:47;25.60;;;20.60;;
44438;SDS011;30145;48.874;10.186;2022-08-19T10:16:17;24.13;;;20.10;;
44438;SDS011;30145;48.874;10.186;2022-08-19T10:18:49;26.50;;;21.33;;
44438;SDS011;30145;48.874;10.186;2022-08-19T10:21:18;28.23;;;21.43;;
44438;SDS011;30145;48.874;10.186;2022-08-19T10:23:48;25.23;;;20.33;;
44438;SDS011;30145;48.874;10.186;2022-08-19T10:26:21;23.90;;;20.90;;
44438;SDS011;30145;48.874;10.186;2022-08-19T10:28:49;23.73;;;19.97;;
44438;SDS011;30145;48.874;10.186;2022-08-19T10:31:18;22.83;;;19.00;;
44438;SDS011;30145;48.874;10.186;2022-08-19T10:33:47;22.80;;;18.97;;
44438;SDS011;30145;48.874;10.186;2022-08-19T10:36:15;20.90;;;18.57;;
44438;SDS011;30145;48.874;10.186;2022-08-19T10:38:48;28.77;;;18.60;;
44438;SDS011;30145;48.874;10.186;2022-08-19T10:41:21;21.67;;;18.13;;
44438;SDS011;30145;48.874;10.186;2022-08-19T10:43:51;21.73;;;16.97;;
44438;SDS011;30145;48.874;10.186;2022-08-19T10:46:22;20.33;;;15.50;;
44438;SDS011;30145;48.874;10.186;2022-08-19T10:48:50;19.50;;;16.73;;
44438;SDS011;30145;48.874;10.186;2022-08-19T10:51:18;18.10;;;16.17;;
44438;SDS011;30145;48.874;10.186;2022-08-19T10:54:04;19.77;;;17.23;;
44438;SDS011;30145;48.874;10.186;2022-08-19T10:56:32;18.23;;;16.17;;
44438;SDS011;30145;48.874;10.186;2022-08-19T10:59:21;17.63;;;15.03;;
44438;SDS011;30145;48.874;10.186;2022-08-19T11:01:50;21.00;;;17.03;;
44438;SDS011;30145;48.874;10.186;2022-08-19T11:04:18;18.47;;;16.63;;
44438;SDS011;30145;48.874;10.186;2022-08-19T11:06:46;21.50;;;17.23;;
44438;SDS011;30145;48.874;10.186;2022-08-19T11:09:19;22.80;;;19.47;;
44438;SDS011;30145;48.874;10.186;2022-08-19T11:11:53;22.10;;;19.20;;
44438;SDS011;30145;48.874;10.186;2022-08-19T11:14:21;23.67;;;20.53;;
44438;SDS011;30145;48.874;10.186;2022-08-19T11:16:50;22.87;;;19.37;;
44438;SDS011;30145;48.874;10.186;2022-08-19T11:19:19;24.20;;;20.63;;
44438;SDS011;30145;48.874;10.186;2022-08-19T11:21:47;26.07;;;21.30;;
44438;SDS011;30145;48.874;10.186;2022-08-19T11:24:19;26.23;;;21.97;;
44438;SDS011;30145;48.874;10.186;2022-08-19T11:26:48;24.73;;;21.33;;
44438;SDS011;30145;48.874;10.186;2022-08-19T11:29:17;26.03;;;22.10;;
44438;SDS011;30145;48.874;10.186;2022-08-19T11:31:48;28.10;;;22.90;;
44438;SDS011;30145;48.874;10.186;2022-08-19T11:34:17;28.00;;;22.10;;
44438;SDS011;30145;48.874;10.186;2022-08-19T11:36:46;27.07;;;23.43;;
44438;SDS011;30145;48.874;10.186;2022-08-19T11:39:19;25.00;;;22.40;;
44438;SDS011;30145;48.874;10.186;2022-08-19T11:41:48;26.60;;;21.80;;
44438;SDS011;30145;48.874;10.186;2022-08-19T11:44:15;28.50;;;22.37;;
44438;SDS011;30145;48.874;10.186;2022-08-19T11:46:43;27.07;;;21.53;;
44438;SDS011;30145;48.874;10.186;2022-08-19T11:49:16;26.83;;;21.77;;
44438;SDS011;30145;48.874;10.186;2022-08-19T11:51:45;34.53;;;23.93;;
44438;SDS011;30145;48.874;10.186;2022-08-19T11:54:13;26.93;;;23.20;;
44438;SDS011;30145;48.874;10.186;2022-08-19T11:56:41;27.87;;;23.07;;
44438;SDS011;30145;48.874;10.186;2022-08-19T11:59:08;29.37;;;23.40;;
44438;SDS011;30145;48.874;10.186;2022-08-19T12:01:40;26.30;;;21.77;;
44438;SDS011;30145;48.874;10.186;2022-08-19T12:04:09;25.37;;;21.20;;
44438;SDS011;30145;48.874;10.186;2022-08-19T12:06:37;25.73;;;21.17;;
44438;SDS011;30145;48.874;10.186;2022-08-19T12:09:06;23.07;;;19.03;;
44438;SDS011;30145;48.874;10.186;2022-08-19T12:11:35;21.93;;;19.17;;
44438;SDS011;30145;48.874;10.186;2022-08-19T12:14:03;21.27;;;17.60;;
44438;SDS011;30145;48.874;10.186;2022-08-19T12:16:31;19.33;;;17.33;;
44438;SDS011;30145;48.874;10.186;2022-08-19T12:18:59;18.93;;;16.90;;
44438;SDS011;30145;48.874;10.186;2022-08-19T12:21:30;20.37;;;17.93;;
44438;SDS011;30145;48.874;10.186;2022-08-19T12:24:00;24.37;;;19.27;;
44438;SDS011;30145;48.874;10.186;2022-08-19T12:26:28;20.03;;;17.50;;
44438;SDS011;30145;48.874;10.186;2022-08-19T12:28:55;20.17;;;17.70;;
44438;SDS011;30145;48.874;10.186;2022-08-19T12:31:22;20.23;;;17.43;;
44438;SDS011;30145;48.874;10.186;2022-08-19T12:33:50;22.00;;;18.53;;
44438;SDS011;30145;48.874;10.186;2022-08-19T12:36:18;21.77;;;18.80;;
44438;SDS011;30145;48.874;10.186;2022-08-19T12:38:46;24.47;;;19.83;;
44438;SDS011;30145;48.874;10.186;2022-08-19T12:41:14;22.73;;;19.63;;
44438;SDS011;30145;48.874;10.186;2022-08-19T12:43:44;22.70;;;20.07;;
44438;SDS011;30145;48.874;10.186;2022-08-19T12:46:12;27.10;;;21.13;;
44438;SDS011;30145;48.874;10.186;2022-08-19T12:48:40;23.47;;;19.37;;
44438;SDS011;30145;48.874;10.186;2022-08-19T12:51:11;24.37;;;20.97;;
44438;SDS011;30145;48.874;10.186;2022-08-19T12:53:41;23.13;;;19.80;;
44438;SDS011;30145;48.874;10.186;2022-08-19T12:56:09;23.80;;;19.93;;
44438;SDS011;30145;48.874;10.186;2022-08-19T12:58:38;21.67;;;18.67;;
44438;SDS011;30145;48.874;10.186;2022-08-19T13:01:06;18.73;;;16.73;;
44438;SDS011;30145;48.874;10.186;2022-08-19T13:03:35;19.23;;;17.00;;
44438;SDS011;30145;48.874;10.186;2022-08-19T13:06:05;16.63;;;14.83;;
44438;SDS011;30145;48.874;10.186;2022-08-19T13:08:33;15.37;;;13.73;;
44438;SDS011;30145;48.874;10.186;2022-08-19T13:11:17;17.03;;;14.53;;
44438;SDS011;30145;48.874;10.186;2022-08-19T13:13:46;17.13;;;15.03;;
44438;SDS011;30145;48.874;10.186;2022-08-19T13:16:15;15.83;;;14.13;;
44438;SDS011;30145;48.874;10.186;2022-08-19T13:18:44;14.47;;;12.97;;
44438;SDS011;30145;48.874;10.186;2022-08-19T13:21:13;12.50;;;11.23;;
44438;SDS011;30145;48.874;10.186;2022-08-19T13:23:41;10.57;;;9.53;;
44438;SDS011;30145;48.874;10.186;2022-08-19T13:26:09;9.93;;;8.93;;
44438;SDS011;30145;48.874;10.186;2022-08-19T13:28:37;10.73;;;9.10;;
44438;SDS011;30145;48.874;10.186;2022-08-19T13:31:30;12.00;;;9.50;;
44438;SDS011;30145;48.874;10.186;2022-08-19T13:34:18;12.63;;;11.33;;
44438;SDS011;30145;48.874;10.186;2022-08-19T13:36:52;11.83;;;10.63;;
44438;SDS011;30145;48.874;10.186;2022-08-19T13:39:21;12.83;;;11.53;;
44438;SDS011;30145;48.874;10.186;2022-08-19T13:41:50;15.53;;;12.40;;
44438;SDS011;30145;48.874;10.186;2022-08-19T13:44:18;14.93;;;12.87;;
44438;SDS011;30145;48.874;10.186;2022-08-19T13:46:46;13.90;;;12.47;;
44438;SDS011;30145;48.874;10.186;2022-08-19T13:49:15;14.13;;;12.17;;
44438;SDS011;30145;48.874;10.186;2022-08-19T13:51:42;13.97;;;12.57;;
44438;SDS011;30145;48.874;10.186;2022-08-19T13:54:10;12.80;;;11.30;;
44438;SDS011;30145;48.874;10.186;2022-08-19T13:56:41;14.10;;;12.13;;
44438;SDS011;30145;48.874;10.186;2022-08-19T13:59:10;14.20;;;12.40;;
44438;SDS011;30145;48.874;10.186;2022-08-19T14:01:41;14.63;;;12.43;;
44438;SDS011;30145;48.874;10.186;2022-08-19T14:04:08;15.13;;;13.57;;
44438;SDS011;30145;48.874;10.186;2022-08-19T14:06:36;16.10;;;12.97;;
44438;SDS011;30145;48.874;10.186;2022-08-19T14:09:05;14.10;;;11.60;;
44438;SDS011;30145;48.874;10.186;2022-08-19T14:11:35;15.43;;;13.70;;
44438;SDS011;30145;48.874;10.186;2022-08-19T14:14:02;16.97;;;14.50;;
44438;SDS011;30145;48.874;10.186;2022-08-19T14:16:39;16.73;;;14.83;;
44438;SDS011;30145;48.874;10.186;2022-08-19T14:19:06;15.20;;;13.60;;
44438;SDS011;30145;48.874;10.186;2022-08-19T14:21:34;18.37;;;13.93;;
44438;SDS011;30145;48.874;10.186;2022-08-19T14:24:05;17.80;;;15.07;;
44438;SDS011;30145;48.874;10.186;2022-08-19T14:26:32;16.67;;;14.90;;
44438;SDS011;30145;48.874;10.186;2022-08-19T14:28:59;15.13;;;13.53;;
44438;SDS011;30145;48.874;10.186;2022-08-19T14:31:27;15.97;;;13.40;;